createdAt,value
2018-04-10T00:00:21.148Z,93.41
2018-04-10T00:01:21.134Z,93.98
2018-04-10T00:02:21.375Z,93.98
2018-04-10T00:03:21.106Z,93.88
2018-04-10T00:04:21.061Z,93.79
2018-04-10T00:05:21.029Z,93.98
2018-04-10T00:06:21.118Z,93.79
2018-04-10T00:07:20.996Z,93.60
2018-04-10T00:08:20.985Z,93.79
2018-04-10T00:09:21.270Z,93.70
2018-04-10T00:10:20.957Z,93.70
2018-04-10T00:11:20.949Z,93.51
2018-04-10T00:12:20.988Z,93.51
2018-04-10T00:13:20.913Z,93.60
2018-04-10T00:14:20.899Z,93.79
2018-04-10T00:15:20.891Z,93.51
2018-04-10T00:17:21.163Z,94.27
2018-04-10T00:18:20.896Z,94.36
2018-04-10T00:19:20.832Z,94.17
2018-04-10T00:20:20.820Z,93.79
2018-04-10T00:21:20.808Z,94.74
2018-04-10T00:22:20.796Z,94.65
2018-04-10T00:23:21.074Z,94.56
2018-04-10T00:24:20.909Z,94.46
2018-04-10T00:25:20.745Z,94.74
2018-04-10T00:27:20.771Z,94.65
2018-04-10T00:28:20.711Z,94.93
2018-04-10T00:29:20.989Z,94.46
2018-04-10T00:30:20.727Z,94.56
2018-04-10T00:31:20.661Z,94.56
2018-04-10T00:32:20.645Z,94.65
2018-04-10T00:33:20.638Z,95.12
2018-04-10T00:34:20.622Z,94.84
2018-04-10T00:35:20.908Z,94.65
2018-04-10T00:36:20.651Z,94.74
2018-04-10T00:37:20.575Z,94.65
2018-04-10T00:38:20.569Z,95.12
2018-04-10T00:39:20.551Z,95.12
2018-04-10T00:40:20.538Z,95.32
2018-04-10T00:41:20.920Z,95.32
2018-04-10T00:42:20.657Z,95.32
2018-04-10T00:43:20.491Z,95.89
2018-04-10T00:44:20.479Z,95.79
2018-04-10T00:45:20.482Z,95.79
2018-04-10T00:46:20.505Z,95.22
2018-04-10T00:47:20.432Z,95.79
2018-04-10T00:48:20.419Z,95.32
2018-04-10T00:49:20.405Z,95.12
2018-04-10T00:50:20.395Z,95.41
2018-04-10T00:51:20.380Z,95.61
2018-04-10T00:52:20.813Z,95.61
2018-04-10T00:53:20.350Z,95.61
2018-04-10T00:55:20.320Z,95.08
2018-04-10T00:56:20.306Z,95.22
2018-04-10T00:57:20.290Z,95.22
2018-04-10T00:58:20.429Z,94.65
2018-04-10T00:59:20.264Z,94.56
2018-04-10T01:00:20.251Z,94.84
2018-04-10T01:01:20.245Z,94.27
2018-04-10T01:02:20.220Z,93.88
2018-04-10T01:03:20.211Z,93.79
2018-04-10T01:04:20.291Z,93.79
2018-04-10T01:05:20.176Z,93.88
2018-04-10T01:06:20.168Z,93.70
2018-04-10T01:07:20.149Z,93.31
2018-04-10T01:08:20.139Z,92.93
2018-04-10T01:09:20.122Z,93.70
2018-04-10T01:10:20.257Z,93.02
2018-04-10T01:11:20.096Z,93.60
2018-04-10T01:12:20.076Z,93.88
2018-04-10T01:13:20.065Z,93.98
2018-04-10T01:14:20.051Z,93.70
2018-04-10T01:15:20.032Z,93.60
2018-04-10T01:16:20.070Z,94.17
2018-04-10T01:17:20.000Z,93.98
2018-04-10T01:18:19.987Z,94.27
2018-04-10T01:19:19.973Z,93.98
2018-04-10T01:21:19.995Z,94.12
2018-04-10T01:22:19.937Z,94.89
2018-04-10T01:23:19.913Z,94.60
2018-04-10T01:25:19.889Z,95.27
2018-04-10T01:26:19.885Z,95.08
2018-04-10T01:27:19.913Z,95.56
2018-04-10T01:28:19.864Z,95.46
2018-04-10T01:29:19.834Z,95.56
2018-04-10T01:30:19.816Z,95.37
2018-04-10T01:31:19.799Z,95.65
2018-04-10T01:32:19.788Z,95.46
2018-04-10T01:33:19.819Z,95.56
2018-04-10T01:34:19.758Z,95.37
2018-04-10T01:35:19.741Z,95.46
2018-04-10T01:36:19.730Z,95.46
2018-04-10T01:37:19.710Z,95.46
2018-04-10T01:38:19.707Z,95.84
2018-04-10T01:39:20.084Z,95.84
2018-04-10T01:40:19.669Z,96.13
2018-04-10T01:41:19.652Z,96.32
2018-04-10T01:42:19.640Z,96.32
2018-04-10T01:43:19.630Z,96.13
2018-04-10T01:44:19.714Z,96.27
2018-04-10T01:45:19.698Z,96.41
2018-04-10T01:46:19.584Z,96.17
2018-04-10T01:47:19.565Z,95.89
2018-04-10T01:48:19.554Z,96.08
2018-04-10T01:55:19.452Z,97.22
2018-04-10T01:56:19.435Z,96.94
2018-04-10T01:57:19.467Z,97.32
2018-04-10T01:58:19.404Z,96.94
2018-04-10T01:59:19.388Z,96.65
2018-04-10T02:00:19.385Z,96.75
2018-04-10T02:01:19.359Z,97.51
2018-04-10T02:02:19.344Z,97.51
2018-04-10T02:03:19.480Z,97.51
2018-04-10T02:04:19.319Z,97.70
2018-04-10T02:05:19.299Z,97.61
2018-04-10T02:12:19.194Z,97.75
2018-04-10T02:13:19.189Z,98.51
2018-04-10T02:14:19.169Z,98.22
2018-04-10T02:16:19.437Z,98.51
2018-04-10T02:17:19.119Z,98.41
2018-04-10T02:18:19.123Z,98.41
2018-04-10T02:19:19.091Z,98.70
2018-04-10T02:20:19.075Z,98.60
2018-04-10T02:21:19.063Z,98.51
2018-04-10T02:23:19.032Z,98.51
2018-04-10T02:24:19.021Z,98.41
2018-04-10T02:25:19.001Z,98.60
2018-04-10T02:26:19.001Z,98.32
2018-04-10T02:27:18.973Z,98.32
2018-04-10T02:28:19.060Z,98.79
2018-04-10T02:29:18.943Z,98.03
2018-04-10T02:30:18.935Z,99.18
2018-04-10T02:31:18.909Z,98.99
2018-04-10T02:32:18.944Z,98.22
2018-04-10T02:33:18.881Z,99.08
2018-04-10T02:34:18.916Z,98.70
2018-04-10T02:35:18.851Z,98.79
2018-04-10T02:36:18.843Z,98.89
2018-04-10T02:38:18.809Z,99.08
2018-04-10T02:39:18.897Z,98.70
2018-04-10T02:40:18.776Z,98.99
2018-04-10T02:41:18.764Z,99.18
2018-04-10T02:42:18.751Z,98.99
2018-04-10T02:43:18.728Z,98.89
2018-04-10T02:46:18.685Z,99.37
2018-04-10T02:47:18.669Z,99.27
2018-04-10T02:48:18.656Z,98.70
2018-04-10T02:49:18.639Z,99.37
2018-04-10T02:50:18.628Z,99.18
2018-04-10T02:51:18.664Z,99.27
2018-04-10T02:52:18.645Z,99.08
2018-04-10T02:53:18.580Z,99.27
2018-04-10T02:54:18.559Z,98.70
2018-04-10T02:56:18.529Z,98.60
2018-04-10T02:57:18.515Z,98.89
2018-04-10T02:58:18.550Z,98.99
2018-04-10T02:59:18.481Z,98.99
2018-04-10T03:00:18.471Z,99.18
2018-04-10T03:01:18.454Z,99.08
2018-04-10T03:02:18.435Z,99.08
2018-04-10T03:03:18.421Z,99.08
2018-04-10T03:04:18.465Z,99.27
2018-04-10T03:05:18.388Z,99.37
2018-04-10T03:06:18.620Z,99.08
2018-04-10T03:07:18.359Z,98.79
2018-04-10T03:08:18.337Z,98.79
2018-04-10T03:09:18.425Z,99.65
2018-04-10T03:10:18.763Z,99.37
2018-04-10T03:11:18.295Z,98.99
2018-04-10T03:12:18.277Z,98.99
2018-04-10T03:13:18.312Z,99.08
2018-04-10T03:14:18.247Z,99.08
2018-04-10T03:15:18.231Z,99.65
2018-04-10T03:16:18.677Z,99.84
2018-04-10T03:17:18.207Z,99.65
2018-04-10T03:18:18.282Z,99.75
2018-04-10T03:19:18.169Z,98.99
2018-04-10T03:20:18.153Z,99.08
2018-04-10T03:21:18.484Z,98.70
2018-04-10T03:22:18.235Z,98.32
2018-04-10T03:23:18.110Z,98.13
2018-04-10T03:24:18.090Z,98.41
2018-04-10T03:25:18.074Z,98.13
2018-04-10T03:26:18.059Z,98.32
2018-04-10T03:27:18.042Z,98.51
2018-04-10T03:28:18.077Z,97.94
2018-04-10T03:29:18.066Z,97.65
2018-04-10T03:30:18.005Z,97.84
2018-04-10T03:31:17.981Z,97.84
2018-04-10T03:32:17.965Z,98.13
2018-04-10T03:33:17.948Z,97.46
2018-04-10T03:34:17.984Z,97.84
2018-04-10T03:35:17.924Z,97.94
2018-04-10T03:36:17.907Z,97.17
2018-04-10T03:37:17.891Z,97.65
2018-04-10T03:38:17.871Z,97.36
2018-04-10T03:39:17.861Z,97.46
2018-04-10T03:40:17.893Z,97.75
2018-04-10T03:41:17.823Z,97.36
2018-04-10T03:42:17.805Z,97.56
2018-04-10T03:43:17.792Z,96.70
2018-04-10T03:44:18.125Z,96.98
2018-04-10T03:45:17.768Z,97.08
2018-04-10T03:46:17.748Z,96.98
2018-04-10T03:47:17.729Z,96.80
2018-04-10T03:48:17.719Z,96.98
2018-04-10T03:49:17.696Z,97.13
2018-04-10T03:50:17.779Z,97.08
2018-04-10T03:51:17.662Z,97.13
2018-04-10T03:52:17.648Z,96.80
2018-04-10T04:00:17.518Z,96.27
2018-04-10T04:01:17.509Z,96.75
2018-04-10T04:02:17.538Z,96.27
2018-04-10T04:03:17.470Z,96.56
2018-04-10T04:04:17.460Z,96.65
2018-04-10T04:05:17.437Z,96.27
2018-04-10T04:06:17.424Z,97.32
2018-04-10T04:07:17.405Z,97.08
2018-04-10T04:08:17.440Z,96.98
2018-04-10T04:09:17.374Z,96.65
2018-04-10T04:10:17.360Z,97.36
2018-04-10T04:11:17.344Z,97.75
2018-04-10T04:12:17.327Z,97.80
2018-04-10T04:13:17.317Z,97.65
2018-04-10T04:14:17.354Z,97.51
2018-04-10T04:15:17.279Z,98.13
2018-04-10T04:16:17.314Z,97.84
2018-04-10T04:17:17.256Z,97.84
2018-04-10T04:18:17.235Z,97.65
2018-04-10T04:19:17.217Z,98.13
2018-04-10T04:20:17.213Z,98.51
2018-04-10T04:21:17.190Z,98.70
2018-04-10T04:22:17.531Z,98.13
2018-04-10T04:23:17.151Z,98.60
2018-04-10T04:24:17.138Z,98.60
2018-04-10T04:25:17.132Z,99.46
2018-04-10T04:26:17.107Z,98.22
2018-04-10T04:27:17.103Z,98.41
2018-04-10T04:28:17.133Z,98.60
2018-04-10T04:29:17.325Z,98.32
2018-04-10T04:30:17.043Z,98.32
2018-04-10T04:31:17.131Z,98.70
2018-04-10T04:33:17.103Z,98.79
2018-04-10T04:34:17.033Z,98.65
2018-04-10T04:35:16.968Z,99.08
2018-04-10T04:36:16.947Z,99.41
2018-04-10T04:37:16.939Z,99.60
2018-04-10T04:38:16.916Z,99.99
2018-04-10T04:39:16.902Z,99.99
2018-04-10T04:40:16.934Z,99.99
2018-04-10T04:41:16.922Z,99.99
2018-04-10T04:42:16.855Z,99.99
2018-04-10T04:43:16.836Z,99.99
2018-04-10T04:44:16.826Z,99.99
2018-04-10T04:45:16.810Z,99.99
2018-04-10T04:46:16.788Z,99.99
2018-04-10T04:47:16.826Z,99.99
2018-04-10T04:48:16.807Z,99.79
2018-04-10T04:49:16.751Z,99.99
2018-04-10T04:50:16.730Z,99.99
2018-04-10T04:51:16.712Z,99.99
2018-04-10T04:52:16.708Z,99.99
2018-04-10T04:53:16.730Z,99.99
2018-04-10T04:54:16.716Z,99.99
2018-04-10T04:55:16.647Z,99.99
2018-04-10T04:56:16.632Z,99.99
2018-04-10T04:57:16.618Z,99.94
2018-04-10T04:59:16.584Z,99.99
2018-04-10T05:00:16.627Z,99.99
2018-04-10T05:01:16.557Z,99.99
2018-04-10T05:02:16.539Z,99.99
2018-04-10T05:03:16.518Z,99.08
2018-04-10T05:04:16.507Z,99.27
2018-04-10T05:05:16.500Z,99.27
2018-04-10T05:06:16.524Z,99.27
2018-04-10T05:07:16.459Z,99.65
2018-04-10T05:08:16.496Z,99.99
2018-04-10T05:09:16.437Z,99.84
2018-04-10T05:10:16.413Z,99.65
2018-04-10T05:11:16.402Z,99.94
2018-04-10T05:12:16.640Z,99.94
2018-04-10T05:13:16.404Z,99.84
2018-04-10T05:14:16.493Z,99.46
2018-04-10T05:15:16.339Z,99.99
2018-04-10T05:16:16.322Z,99.99
2018-04-10T05:17:16.325Z,99.99
2018-04-10T05:18:16.291Z,99.65
2018-04-10T05:19:16.273Z,99.55
2018-04-10T05:20:16.313Z,99.55
2018-04-10T05:21:16.243Z,99.65
2018-04-10T05:22:16.944Z,99.65
2018-04-10T05:30:16.102Z,97.61
2018-04-10T05:31:16.080Z,97.80
2018-04-10T05:32:16.117Z,97.51
2018-04-10T05:33:16.051Z,97.61
2018-04-10T05:34:16.041Z,97.85
2018-04-10T05:35:16.029Z,97.51
2018-04-10T05:36:16.005Z,97.56
2018-04-10T05:37:16.032Z,98.13
2018-04-10T05:38:16.027Z,97.94
2018-04-10T05:39:15.957Z,97.75
2018-04-10T05:40:16.202Z,97.85
2018-04-10T05:41:15.977Z,97.46
2018-04-10T05:42:15.922Z,97.37
2018-04-10T05:43:16.173Z,97.56
2018-04-10T05:44:15.939Z,97.75
2018-04-10T05:45:15.877Z,97.56
2018-04-10T05:46:15.856Z,96.27
2018-04-10T05:47:16.301Z,96.56
2018-04-10T05:48:15.825Z,96.46
2018-04-10T05:49:15.810Z,95.89
2018-04-10T05:50:15.810Z,95.32
2018-04-10T05:51:15.780Z,95.89
2018-04-10T05:52:15.763Z,94.56
2018-04-10T05:53:15.806Z,94.56
2018-04-10T05:54:15.792Z,94.46
2018-04-10T05:55:15.755Z,94.84
2018-04-10T05:56:15.709Z,94.46
2018-04-10T05:57:15.693Z,94.17
2018-04-10T05:58:15.680Z,94.22
2018-04-10T05:59:15.765Z,94.22
2018-04-10T06:00:15.695Z,94.22
2018-04-10T06:01:15.637Z,93.93
2018-04-10T06:02:15.872Z,93.65
2018-04-10T06:03:15.605Z,93.65
2018-04-10T06:04:15.588Z,94.22
2018-04-10T06:05:15.739Z,94.22
2018-04-10T06:07:15.552Z,93.74
2018-04-10T06:08:15.536Z,94.27
2018-04-10T06:09:15.545Z,94.17
2018-04-10T06:10:15.506Z,94.17
2018-04-10T06:11:15.541Z,93.93
2018-04-10T06:12:15.508Z,93.41
2018-04-10T06:13:15.470Z,92.45
2018-04-10T06:14:15.445Z,92.74
2018-04-10T06:15:15.445Z,92.45
2018-04-10T06:16:15.418Z,91.11
2018-04-10T06:17:15.456Z,92.07
2018-04-10T06:18:15.397Z,91.74
2018-04-10T06:19:15.733Z,91.59
2018-04-10T06:20:15.661Z,91.25
2018-04-10T06:21:15.350Z,90.78
2018-04-10T06:22:15.337Z,90.59
2018-04-10T06:23:15.369Z,90.30
2018-04-10T06:24:15.370Z,90.20
2018-04-10T06:25:15.546Z,89.73
2018-04-10T06:26:15.293Z,89.48
2018-04-10T06:27:15.272Z,88.43
2018-04-10T06:28:15.254Z,88.62
2018-04-10T06:29:15.297Z,89.01
2018-04-10T06:30:15.224Z,87.86
2018-04-10T06:31:15.211Z,87.76
2018-04-10T06:32:15.213Z,87.86
2018-04-10T06:33:15.188Z,87.19
2018-04-10T06:34:15.176Z,87.09
2018-04-10T06:35:15.211Z,86.85
2018-04-10T06:36:15.194Z,86.18
2018-04-10T06:37:15.152Z,86.66
2018-04-10T06:38:15.120Z,85.99
2018-04-10T06:39:15.109Z,85.61
2018-04-10T06:40:15.090Z,85.51
2018-04-10T06:41:15.129Z,84.94
2018-04-10T06:42:15.066Z,85.03
2018-04-10T06:43:15.055Z,84.75
2018-04-10T06:44:15.053Z,84.65
2018-04-10T06:45:15.153Z,83.69
2018-04-10T06:46:15.019Z,83.60
2018-04-10T06:47:15.362Z,83.36
2018-04-10T06:48:15.003Z,83.36
2018-04-10T06:49:14.981Z,83.06
2018-04-10T06:50:14.983Z,82.20
2018-04-10T06:51:14.950Z,82.40
2018-04-10T06:52:14.944Z,82.20
2018-04-10T06:54:14.966Z,82.87
2018-04-10T06:55:14.903Z,82.15
2018-04-10T06:56:14.892Z,81.82
2018-04-10T06:57:14.873Z,81.25
2018-04-10T06:59:14.853Z,81.57
2018-04-10T07:00:14.885Z,81.67
2018-04-10T07:02:14.812Z,81.57
2018-04-10T07:03:14.800Z,80.52
2018-04-10T07:05:14.774Z,80.33
2018-04-10T07:06:14.826Z,79.75
2018-04-10T07:07:14.763Z,79.75
2018-04-10T07:08:14.738Z,80.24
2018-04-10T07:09:14.726Z,79.80
2018-04-10T07:10:14.723Z,79.41
2018-04-10T07:11:14.744Z,78.64
2018-04-10T07:12:14.735Z,79.22
2018-04-10T07:13:14.687Z,79.32
2018-04-10T07:14:14.668Z,79.60
2018-04-10T07:15:14.966Z,78.93
2018-04-10T07:16:14.637Z,79.03
2018-04-10T07:17:14.629Z,78.69
2018-04-10T07:18:14.621Z,78.11
2018-04-10T07:20:14.591Z,77.44
2018-04-10T07:21:14.629Z,75.90
2018-04-10T07:22:14.566Z,77.63
2018-04-10T07:23:14.565Z,77.73
2018-04-10T07:24:14.857Z,76.96
2018-04-10T07:25:14.679Z,76.48
2018-04-10T07:26:14.608Z,76.32
2018-04-10T07:27:14.678Z,75.46
2018-04-10T07:28:14.565Z,73.83
2018-04-10T07:29:14.596Z,72.37
2018-04-10T07:30:14.484Z,70.39
2018-04-10T07:31:14.594Z,68.66
2018-04-10T07:32:14.461Z,68.31
2018-04-10T07:33:14.504Z,67.07
2018-04-10T07:34:14.434Z,66.10
2018-04-10T07:35:14.430Z,66.23
2018-04-10T07:36:14.410Z,65.84
2018-04-10T07:37:14.397Z,64.69
2018-04-10T07:38:14.393Z,63.57
2018-04-10T07:39:14.429Z,63.60
2018-04-10T07:40:14.368Z,63.99
2018-04-10T07:41:14.354Z,62.74
2018-04-10T07:42:14.351Z,61.32
2018-04-10T07:43:14.338Z,62.19
2018-04-10T07:44:14.330Z,60.94
2018-04-10T07:45:14.365Z,60.84
2018-04-10T07:46:14.306Z,60.75
2018-04-10T07:47:14.306Z,60.84
2018-04-10T07:48:14.538Z,60.24
2018-04-10T07:49:14.369Z,59.66
2018-04-10T07:50:14.265Z,59.78
2018-04-10T07:51:14.312Z,59.40
2018-04-10T07:52:14.364Z,58.65
2018-04-10T07:53:14.243Z,58.17
2018-04-10T07:54:14.480Z,57.79
2018-04-10T07:55:14.221Z,58.65
2018-04-10T07:56:14.217Z,57.89
2018-04-10T07:57:14.254Z,56.57
2018-04-10T07:58:14.288Z,57.50
2018-04-10T07:59:14.181Z,57.40
2018-04-10T08:00:14.486Z,56.73
2018-04-10T08:01:14.218Z,56.92
2018-04-10T08:02:14.164Z,56.44
2018-04-10T08:03:14.208Z,56.57
2018-04-10T08:05:14.182Z,55.70
2018-04-10T08:06:14.422Z,55.22
2018-04-10T08:07:14.123Z,54.83
2018-04-10T08:08:15.060Z,54.47
2018-04-10T08:09:14.095Z,54.18
2018-04-10T08:11:14.128Z,54.40
2018-04-10T08:12:14.423Z,54.21
2018-04-10T08:13:14.113Z,53.70
2018-04-10T08:14:14.054Z,53.05
2018-04-10T08:15:14.098Z,52.98
2018-04-10T08:16:14.833Z,52.86
2018-04-10T08:17:14.207Z,53.05
2018-04-10T08:18:14.325Z,52.73
2018-04-10T08:19:14.167Z,53.31
2018-04-10T08:20:14.014Z,52.93
2018-04-10T08:21:14.002Z,53.15
2018-04-10T08:22:14.011Z,52.69
2018-04-10T08:23:13.988Z,52.31
2018-04-10T08:24:14.278Z,52.67
2018-04-10T08:25:14.074Z,52.95
2018-04-10T08:26:13.963Z,52.76
2018-04-10T08:27:13.955Z,51.89
2018-04-10T08:28:13.955Z,52.28
2018-04-10T08:29:13.992Z,52.11
2018-04-10T08:31:14.229Z,52.14
2018-04-10T08:32:14.024Z,52.11
2018-04-10T08:33:13.911Z,51.82
2018-04-10T08:34:13.907Z,52.01
2018-04-10T08:35:13.958Z,52.14
2018-04-10T08:36:13.893Z,52.04
2018-04-10T08:37:14.188Z,51.07
2018-04-10T08:38:13.881Z,50.33
2018-04-10T08:40:13.929Z,50.13
2018-04-10T08:42:13.852Z,49.97
2018-04-10T08:43:14.154Z,49.85
2018-04-10T08:44:13.859Z,50.74
2018-04-10T08:45:14.394Z,49.77
2018-04-10T08:46:13.932Z,49.77
2018-04-10T08:47:13.823Z,50.71
2018-04-10T08:48:13.814Z,49.75
2018-04-10T08:49:14.114Z,49.95
2018-04-10T08:50:13.802Z,49.63
2018-04-10T08:53:13.835Z,50.04
2018-04-10T08:54:13.782Z,49.75
2018-04-10T08:55:14.071Z,49.75
2018-04-10T08:57:13.763Z,49.77
2018-04-10T08:58:13.832Z,48.76
2018-04-10T08:59:13.803Z,48.76
2018-04-10T09:00:13.855Z,48.37
2018-04-10T09:02:14.091Z,47.58
2018-04-10T09:03:13.830Z,47.86
2018-04-10T09:04:13.787Z,47.65
2018-04-10T09:05:13.771Z,48.81
2018-04-10T09:06:13.713Z,48.16
2018-04-10T09:07:16.211Z,47.38
2018-04-10T09:09:14.001Z,48.64
2018-04-10T09:10:13.806Z,48.25
2018-04-10T09:11:13.743Z,47.96
2018-04-10T09:13:13.690Z,48.27
2018-04-10T09:14:13.669Z,47.60
2018-04-10T09:15:14.198Z,47.41
2018-04-10T09:18:14.569Z,46.83
2018-04-10T09:19:13.759Z,46.46
2018-04-10T09:20:13.890Z,46.84
2018-04-10T09:21:15.567Z,46.36
2018-04-10T09:22:13.962Z,47.14
2018-04-10T09:23:13.782Z,45.98
2018-04-10T09:25:13.806Z,46.83
2018-04-10T09:26:13.620Z,45.98
2018-04-10T09:27:13.955Z,46.87
2018-04-10T09:28:13.609Z,46.87
2018-04-10T09:29:13.615Z,46.19
2018-04-10T09:32:13.650Z,46.00
2018-04-10T09:33:13.895Z,45.51
2018-04-10T09:34:13.593Z,45.44
2018-04-10T09:35:13.599Z,45.27
2018-04-10T09:36:13.583Z,44.67
2018-04-10T09:37:13.599Z,46.09
2018-04-10T09:38:13.631Z,45.51
2018-04-10T09:39:13.873Z,45.05
2018-04-10T09:40:13.571Z,45.05
2018-04-10T09:41:13.572Z,46.00
2018-04-10T09:42:13.568Z,45.07
2018-04-10T09:44:13.715Z,43.52
2018-04-10T09:45:13.912Z,43.45
2018-04-10T09:48:13.545Z,44.18
2018-04-10T09:50:13.651Z,44.23
2018-04-10T09:51:13.843Z,44.01
2018-04-10T09:52:13.549Z,43.74
2018-04-10T09:53:13.538Z,44.13
2018-04-10T09:54:13.534Z,43.62
2018-04-10T09:56:13.583Z,43.91
2018-04-10T09:57:13.827Z,43.82
2018-04-10T09:58:13.576Z,44.37
2018-04-10T09:59:13.520Z,44.96
2018-04-10T10:00:13.518Z,44.20
2018-04-10T10:01:13.522Z,43.54
2018-04-10T10:02:13.564Z,42.96
2018-04-10T10:03:13.815Z,42.86
2018-04-10T10:05:13.613Z,44.01
2018-04-10T10:06:26.402Z,43.47
2018-04-10T10:07:13.810Z,42.43
2018-04-10T10:08:15.009Z,42.71
2018-04-10T10:09:14.195Z,42.99
2018-04-10T10:11:13.502Z,42.81
2018-04-10T10:12:13.503Z,42.23
2018-04-10T10:13:14.142Z,41.45
2018-04-10T10:14:14.165Z,42.03
2018-04-10T10:15:14.071Z,43.37
2018-04-10T10:16:13.826Z,42.67
2018-04-10T10:17:13.777Z,43.08
2018-04-10T10:19:13.501Z,41.45
2018-04-10T10:20:13.540Z,41.74
2018-04-10T10:21:13.791Z,41.06
2018-04-10T10:23:13.487Z,41.16
2018-04-10T10:24:13.549Z,41.39
2018-04-10T10:25:13.492Z,41.08
2018-04-10T10:26:13.599Z,40.81
2018-04-10T10:27:13.792Z,40.81
2018-04-10T10:28:13.488Z,40.72
2018-04-10T10:30:13.638Z,40.79
2018-04-10T10:32:13.532Z,41.01
2018-04-10T10:33:13.790Z,39.86
2018-04-10T10:34:13.771Z,40.13
2018-04-10T10:35:13.814Z,41.08
2018-04-10T10:36:14.259Z,40.91
2018-04-10T10:37:13.828Z,39.59
2018-04-10T10:38:13.776Z,38.05
2018-04-10T10:39:13.944Z,38.13
2018-04-10T10:40:13.940Z,38.50
2018-04-10T10:41:13.489Z,38.60
2018-04-10T10:42:13.494Z,39.36
2018-04-10T10:43:13.486Z,39.57
2018-04-10T10:44:13.537Z,39.18
2018-04-10T10:45:13.800Z,38.21
2018-04-10T10:46:13.590Z,38.67
2018-04-10T10:47:13.487Z,39.06
2018-04-10T10:48:13.491Z,39.06
2018-04-10T10:49:13.589Z,39.26
2018-04-10T10:50:13.488Z,39.57
2018-04-10T10:51:13.848Z,39.29
2018-04-10T10:52:13.538Z,39.00
2018-04-10T10:55:13.497Z,37.84
2018-04-10T10:56:13.493Z,37.64
2018-04-10T10:59:13.850Z,39.29
2018-04-10T11:00:13.505Z,39.22
2018-04-10T11:01:13.511Z,38.42
2018-04-10T11:02:13.502Z,37.54
2018-04-10T11:03:13.504Z,37.93
2018-04-10T11:05:13.866Z,38.09
2018-04-10T11:06:13.501Z,39.10
2018-04-10T11:07:13.501Z,38.81
2018-04-10T11:08:13.503Z,37.87
2018-04-10T11:09:13.514Z,37.76
2018-04-10T11:12:14.156Z,38.42
2018-04-10T11:14:13.514Z,40.15
2018-04-10T11:15:13.548Z,39.57
2018-04-10T11:16:13.521Z,39.57
2018-04-10T11:17:13.508Z,39.20
2018-04-10T11:18:13.996Z,39.18
2018-04-10T11:19:13.887Z,39.37
2018-04-10T11:21:13.517Z,39.37
2018-04-10T11:22:13.612Z,39.47
2018-04-10T11:23:13.521Z,39.86
2018-04-10T11:24:14.176Z,39.57
2018-04-10T11:25:13.531Z,38.75
2018-04-10T11:26:14.154Z,36.88
2018-04-10T11:28:21.218Z,37.26
2018-04-10T11:30:14.683Z,37.48
2018-04-10T11:31:14.837Z,37.74
2018-04-10T11:32:14.160Z,37.76
2018-04-10T11:33:13.533Z,37.48
2018-04-10T11:34:13.530Z,38.17
2018-04-10T11:35:13.537Z,37.79
2018-04-10T11:36:13.890Z,36.82
2018-04-10T11:37:13.586Z,36.43
2018-04-10T11:38:13.540Z,37.97
2018-04-10T11:39:13.591Z,37.46
2018-04-10T11:40:13.541Z,38.34
2018-04-10T11:41:13.547Z,37.87
2018-04-10T11:42:13.895Z,36.74
2018-04-10T11:43:13.654Z,35.59
2018-04-10T11:44:13.549Z,36.04
2018-04-10T11:45:13.549Z,36.25
2018-04-10T11:46:13.551Z,35.26
2018-04-10T11:48:13.856Z,35.85
2018-04-10T11:49:13.615Z,35.86
2018-04-10T11:50:13.557Z,34.68
2018-04-10T11:51:13.563Z,34.89
2018-04-10T11:52:13.563Z,35.83
2018-04-10T11:53:13.570Z,36.22
2018-04-10T11:54:13.865Z,35.34
2018-04-10T11:55:13.733Z,36.00
2018-04-10T11:56:14.033Z,37.24
2018-04-10T11:57:14.050Z,37.52
2018-04-10T11:58:13.684Z,39.41
2018-04-10T11:59:13.743Z,40.08
2018-04-10T12:00:13.772Z,40.85
2018-04-10T12:01:14.073Z,40.85
2018-04-10T12:02:13.770Z,40.95
2018-04-10T12:03:13.940Z,41.41
2018-04-10T12:04:13.681Z,42.65
2018-04-10T12:05:13.616Z,43.70
2018-04-10T12:06:13.584Z,43.60
2018-04-10T12:07:13.884Z,43.13
2018-04-10T12:08:13.643Z,42.11
2018-04-10T12:09:13.788Z,41.36
2018-04-10T12:10:13.639Z,40.67
2018-04-10T12:11:13.588Z,39.72
2018-04-10T12:12:13.583Z,39.28
2018-04-10T12:13:14.162Z,38.40
2018-04-10T12:15:13.639Z,37.48
2018-04-10T12:18:13.579Z,36.33
2018-04-10T12:21:13.935Z,37.34
2018-04-10T12:22:13.586Z,39.53
2018-04-10T12:23:13.592Z,38.98
2018-04-10T12:24:13.630Z,37.93
2018-04-10T12:25:13.645Z,38.79
2018-04-10T12:26:13.587Z,38.60
2018-04-10T12:27:14.054Z,38.21
2018-04-10T12:28:13.586Z,38.98
2018-04-10T12:29:13.580Z,38.42
2018-04-10T12:30:13.598Z,39.16
2018-04-10T12:31:13.588Z,39.55
2018-04-10T12:32:13.844Z,39.28
2018-04-10T12:33:14.048Z,38.60
2018-04-10T12:34:13.597Z,38.50
2018-04-10T12:35:13.587Z,39.59
2018-04-10T12:37:13.589Z,38.54
2018-04-10T12:38:13.894Z,38.15
2018-04-10T12:39:13.641Z,37.48
2018-04-10T12:40:13.895Z,36.82
2018-04-10T12:41:13.619Z,36.84
2018-04-10T12:42:13.593Z,36.90
2018-04-10T12:43:13.780Z,37.77
2018-04-10T12:44:13.810Z,36.74
2018-04-10T12:45:15.995Z,36.80
2018-04-10T12:46:14.307Z,38.07
2018-04-10T12:48:14.106Z,38.98
2018-04-10T12:49:13.598Z,40.01
2018-04-10T12:50:13.611Z,40.79
2018-04-10T12:51:13.750Z,41.06
2018-04-10T12:52:13.900Z,41.18
2018-04-10T12:53:13.652Z,41.01
2018-04-10T12:54:13.605Z,40.81
2018-04-10T12:55:13.657Z,41.55
2018-04-10T12:56:13.601Z,41.69
2018-04-10T12:57:13.708Z,40.72
2018-04-10T12:58:14.008Z,41.08
2018-04-10T12:59:13.829Z,42.21
2018-04-10T13:00:13.658Z,42.43
2018-04-10T13:01:13.655Z,40.72
2018-04-10T13:02:13.751Z,41.69
2018-04-10T13:03:13.606Z,41.88
2018-04-10T13:04:13.905Z,41.51
2018-04-10T13:06:13.657Z,40.64
2018-04-10T13:07:13.605Z,40.08
2018-04-10T13:08:13.607Z,39.61
2018-04-10T13:09:13.610Z,39.41
2018-04-10T13:10:13.908Z,39.43
2018-04-10T13:12:13.755Z,37.52
2018-04-10T13:13:13.620Z,36.58
2018-04-10T13:14:13.628Z,36.96
2018-04-10T13:15:13.606Z,36.25
2018-04-10T13:16:13.916Z,36.29
2018-04-10T13:17:13.822Z,36.27
2018-04-10T13:18:14.858Z,36.47
2018-04-10T13:20:13.606Z,34.67
2018-04-10T13:21:13.616Z,34.80
2018-04-10T13:22:14.027Z,34.00
2018-04-10T13:23:13.944Z,34.09
2018-04-10T13:24:13.663Z,34.38
2018-04-10T13:25:13.637Z,35.16
2018-04-10T13:26:13.821Z,35.43
2018-04-10T13:27:13.673Z,35.88
2018-04-10T13:28:13.926Z,36.19
2018-04-10T13:29:13.639Z,35.74
2018-04-10T13:30:13.984Z,34.96
2018-04-10T13:31:13.641Z,35.71
2018-04-10T13:32:13.635Z,36.35
2018-04-10T13:33:13.752Z,36.74
2018-04-10T13:34:13.945Z,37.33
2018-04-10T13:35:13.644Z,38.48
2018-04-10T13:36:13.701Z,38.17
2018-04-10T13:37:13.656Z,38.65
2018-04-10T13:38:13.667Z,38.83
2018-04-10T13:39:13.666Z,39.69
2018-04-10T13:40:13.963Z,39.24
2018-04-10T13:41:13.659Z,38.18
2018-04-10T13:42:13.713Z,38.67
2018-04-10T13:43:13.896Z,38.75
2018-04-10T13:44:13.816Z,38.83
2018-04-10T13:45:13.765Z,39.80
2018-04-10T13:46:14.216Z,39.41
2018-04-10T13:48:13.985Z,39.39
2018-04-10T13:49:13.683Z,40.83
2018-04-10T13:51:13.684Z,39.80
2018-04-10T13:52:13.996Z,39.80
2018-04-10T13:54:13.851Z,40.17
2018-04-10T13:55:13.694Z,39.49
2018-04-10T13:56:13.745Z,40.27
2018-04-10T13:57:13.694Z,40.73
2018-04-10T13:58:13.707Z,40.93
2018-04-10T13:59:14.005Z,40.81
2018-04-10T14:01:13.752Z,40.73
2018-04-10T14:02:13.707Z,40.83
2018-04-10T14:03:13.754Z,41.03
2018-04-10T14:04:13.711Z,41.28
2018-04-10T14:05:13.713Z,43.47
2018-04-10T14:06:14.077Z,44.42
2018-04-10T14:08:13.787Z,45.85
2018-04-10T14:09:13.713Z,46.04
2018-04-10T14:11:13.724Z,46.02
2018-04-10T14:12:14.017Z,46.80
2018-04-10T14:14:13.831Z,46.87
2018-04-10T14:15:13.712Z,47.26
2018-04-10T14:16:13.742Z,47.26
2018-04-10T14:18:14.112Z,47.45
2018-04-10T14:19:13.811Z,47.26
2018-04-10T14:20:13.773Z,46.80
2018-04-10T14:21:13.891Z,47.20
2018-04-10T14:23:13.763Z,46.67
2018-04-10T14:24:14.010Z,46.87
2018-04-10T14:27:14.536Z,47.26
2018-04-10T14:28:13.736Z,48.32
2018-04-10T14:29:13.791Z,47.04
2018-04-10T14:30:14.067Z,48.20
2018-04-10T14:34:14.150Z,47.16
2018-04-10T14:35:13.790Z,47.26
2018-04-10T14:36:13.984Z,46.31
2018-04-10T14:37:13.682Z,45.68
2018-04-10T14:38:13.692Z,45.92
2018-04-10T14:39:13.722Z,46.02
2018-04-10T14:41:14.014Z,46.60